Time;durP1;ratioP1;P1;durP2;ratioP2;P2;SDS_P1;SDS_P2;PMS_P1;PMS_P2;Temp;Humidity;BMP_temperature;BMP_pressure;BME280_temperature;BME280_humidity;BME280_pressure;Samples;Min_cycle;Max_cycle;Signal;HPM_P1;HPM_P2
2024/02/01 00:00:23;;;;;;;25.00;13.38;;;;;;;6.54;100.00;102348.44;5087837;28;20478;-72
2024/02/01 00:02:48;;;;;;;25.50;13.80;;;;;;;6.50;100.00;102338.59;5084329;28;20502;-71
2024/02/01 00:05:14;;;;;;;25.23;14.13;;;;;;;6.49;100.00;102349.94;5086857;28;20062;-72
2024/02/01 00:07:39;;;;;;;28.08;15.57;;;;;;;6.45;100.00;102334.84;5085830;28;20028;-71
2024/02/01 00:10:05;;;;;;;27.25;15.55;;;;;;;6.43;100.00;102347.03;5085422;28;20059;-71
2024/02/01 00:12:30;;;;;;;28.08;16.15;;;;;;;6.44;100.00;102343.59;5086952;28;20039;-77
2024/02/01 00:14:56;;;;;;;27.67;16.08;;;;;;;6.40;100.00;102346.91;5082535;28;20024;-75
2024/02/01 00:17:21;;;;;;;27.60;16.05;;;;;;;6.42;100.00;102355.72;5087324;28;20056;-75
2024/02/01 00:19:46;;;;;;;28.95;17.10;;;;;;;6.38;100.00;102359.97;5084581;28;20039;-71
2024/02/01 00:22:12;;;;;;;35.10;17.63;;;;;;;6.37;100.00;102350.28;5085945;28;20483;-71
2024/02/01 00:24:37;;;;;;;28.90;18.38;;;;;;;6.37;100.00;102362.53;5085500;28;20521;-72
2024/02/01 00:27:03;;;;;;;29.90;17.35;;;;;;;6.37;100.00;102357.28;5084779;28;20039;-77
2024/02/01 00:29:28;;;;;;;30.88;18.05;;;;;;;6.36;100.00;102356.34;5086923;28;20111;-71
2024/02/01 00:31:53;;;;;;;32.10;19.17;;;;;;;6.37;100.00;102359.91;5082397;28;20036;-73
2024/02/01 00:34:19;;;;;;;32.20;18.63;;;;;;;6.38;100.00;102367.84;5086822;28;20020;-80
2024/02/01 00:36:44;;;;;;;32.45;20.77;;;;;;;6.38;100.00;102364.34;5083081;28;20075;-80
2024/02/01 00:39:09;;;;;;;32.25;19.98;;;;;;;6.40;100.00;102365.28;5085676;28;20025;-72
2024/02/01 00:41:35;;;;;;;32.17;20.83;;;;;;;6.38;100.00;102367.84;5085617;28;20028;-73
2024/02/01 00:44:00;;;;;;;33.30;21.13;;;;;;;6.39;100.00;102367.03;5081985;28;20113;-70
2024/02/01 00:46:26;;;;;;;34.00;21.17;;;;;;;6.41;100.00;102359.22;5087201;28;20130;-79
2024/02/01 00:48:51;;;;;;;33.53;21.77;;;;;;;6.45;100.00;102350.63;5079289;28;20029;-71
2024/02/01 00:51:16;;;;;;;34.70;22.17;;;;;;;6.47;100.00;102343.72;5084866;28;20471;-78
2024/02/01 00:53:42;;;;;;;34.63;22.75;;;;;;;6.49;100.00;102342.06;5084765;28;20027;-73
2024/02/01 00:56:07;;;;;;;36.80;22.25;;;;;;;6.52;100.00;102351.81;5084737;28;20033;-75
2024/02/01 00:58:32;;;;;;;33.90;22.13;;;;;;;6.54;100.00;102340.53;5085661;28;20028;-71
2024/02/01 01:00:58;;;;;;;34.95;22.95;;;;;;;6.57;100.00;102345.03;5083513;28;20029;-71
2024/02/01 01:03:24;;;;;;;35.25;22.40;;;;;;;6.61;100.00;102346.94;5086537;28;20471;-72
2024/02/01 01:05:49;;;;;;;33.08;22.80;;;;;;;6.62;100.00;102341.75;5083202;28;20032;-70
2024/02/01 01:08:16;;;;;;;34.38;23.15;;;;;;;6.63;100.00;102345.31;5085813;28;20500;-70
2024/02/01 01:10:42;;;;;;;32.15;21.95;;;;;;;6.70;100.00;102341.19;5083021;28;20089;-70
2024/02/01 01:13:07;;;;;;;36.00;24.17;;;;;;;6.70;100.00;102336.88;5084436;28;20032;-72
2024/02/01 01:15:32;;;;;;;34.10;23.13;;;;;;;6.71;100.00;102337.75;5085695;28;20382;-82
2024/02/01 01:17:58;;;;;;;33.97;23.17;;;;;;;6.74;100.00;102340.50;5082859;28;20432;-76
2024/02/01 01:20:24;;;;;;;35.03;23.67;;;;;;;6.75;100.00;102343.22;5086654;28;20040;-70
2024/02/01 01:22:50;;;;;;;35.90;24.20;;;;;;;6.79;100.00;102336.38;5083121;28;20020;-73
2024/02/01 01:25:16;;;;;;;35.03;23.98;;;;;;;6.79;100.00;102346.88;5085258;28;20473;-70
2024/02/01 01:27:41;;;;;;;34.25;24.85;;;;;;;6.80;100.00;102343.41;5084138;28;20489;-76
2024/02/01 01:30:08;;;;;;;37.13;24.42;;;;;;;6.80;100.00;102343.41;5084250;28;20041;-72
2024/02/01 01:32:33;;;;;;;33.28;23.58;;;;;;;6.82;100.00;102344.38;5083808;28;20391;-79
2024/02/01 01:35:00;;;;;;;35.35;24.48;;;;;;;6.82;100.00;102339.13;5082876;28;20036;-78
2024/02/01 01:37:26;;;;;;;37.25;24.65;;;;;;;6.84;100.00;102340.09;5085739;28;20459;-80
2024/02/01 01:39:51;;;;;;;37.20;24.45;;;;;;;6.85;100.00;102336.63;5081261;28;20103;-75
2024/02/01 01:42:16;;;;;;;35.42;25.42;;;;;;;6.89;100.00;102335.06;5085545;28;20058;-70
2024/02/01 01:44:42;;;;;;;37.85;25.98;;;;;;;6.91;100.00;102350.03;5083793;28;20038;-70
2024/02/01 01:47:07;;;;;;;37.95;26.00;;;;;;;6.90;100.00;102348.25;5083920;28;20547;-77
2024/02/01 01:49:33;;;;;;;38.78;27.42;;;;;;;6.92;100.00;102350.94;5084906;28;20056;-70
2024/02/01 01:51:58;;;;;;;38.92;27.20;;;;;;;6.92;100.00;102340.44;5082569;28;20032;-70
2024/02/01 01:54:25;;;;;;;37.75;27.17;;;;;;;6.93;100.00;102351.03;5084475;28;20035;-75
2024/02/01 01:56:51;;;;;;;40.08;27.60;;;;;;;6.96;100.00;102355.47;5082256;28;20086;-73
2024/02/01 01:59:19;;;;;;;38.15;27.40;;;;;;;6.96;100.00;102344.97;5084706;28;20035;-76
2024/02/01 02:01:46;;;;;;;39.00;28.20;;;;;;;6.99;100.00;102350.38;5082789;28;20029;-70
2024/02/01 02:04:15;;;;;;;38.60;28.73;;;;;;;6.97;100.00;102347.69;5084609;28;20081;-71
2024/02/01 02:06:42;;;;;;;39.97;28.70;;;;;;;7.02;100.00;102362.75;5083944;28;20024;-77
2024/02/01 02:09:12;;;;;;;41.83;29.35;;;;;;;7.03;100.00;102361.91;5083655;28;20071;-72
2024/02/01 02:11:39;;;;;;;40.20;29.40;;;;;;;7.04;100.00;102354.09;5085910;28;20033;-70
2024/02/01 02:14:12;;;;;;;39.78;29.65;;;;;;;7.06;100.00;102354.16;5084691;28;20111;-77
2024/02/01 02:16:37;;;;;;;40.65;29.10;;;;;;;7.06;100.00;102356.78;5083337;28;20399;-76
2024/02/01 02:19:10;;;;;;;39.90;29.95;;;;;;;7.08;100.00;102366.53;5084829;28;20024;-78
2024/02/01 02:21:56;;;;;;;40.35;28.85;;;;;;;7.13;100.00;102362.38;5083431;28;20162;-76
2024/02/01 02:24:22;;;;;;;42.22;30.15;;;;;;;7.09;100.00;102359.53;5081969;28;20052;-77
2024/02/01 02:26:48;;;;;;;41.97;30.35;;;;;;;7.11;100.00;102373.69;5083583;28;20031;-77
2024/02/01 02:29:15;;;;;;;41.45;29.98;;;;;;;7.12;100.00;102364.94;5082721;28;20074;-77
2024/02/01 02:31:46;;;;;;;42.22;30.05;;;;;;;7.14;100.00;102366.81;5083653;28;20376;-77
2024/02/01 02:34:12;;;;;;;42.30;30.58;;;;;;;7.15;100.00;102372.97;5082780;28;20107;-75
2024/02/01 02:36:37;;;;;;;42.45;31.45;;;;;;;7.18;100.00;102373.09;5082760;28;20490;-71
2024/02/01 02:39:03;;;;;;;42.80;31.42;;;;;;;7.18;100.00;102374.81;5084134;28;20043;-70
2024/02/01 02:41:29;;;;;;;42.63;31.92;;;;;;;7.20;100.00;102365.28;5081243;28;20106;-71
2024/02/01 02:43:54;;;;;;;42.72;30.83;;;;;;;7.22;100.00;102377.63;5084685;28;20103;-70
2024/02/01 02:46:21;;;;;;;44.03;31.58;;;;;;;7.24;100.00;102375.09;5081569;28;20039;-70
2024/02/01 02:48:46;;;;;;;42.90;31.08;;;;;;;7.22;100.00;102372.38;5083654;28;20192;-71
2024/02/01 02:51:12;;;;;;;43.50;31.35;;;;;;;7.25;100.00;102374.25;5082728;28;20051;-70
2024/02/01 02:53:37;;;;;;;42.28;32.30;;;;;;;7.27;100.00;102377.84;5080996;28;20031;-71
2024/02/01 02:56:06;;;;;;;43.53;31.20;;;;;;;7.31;100.00;102385.94;5083666;28;20123;-70
2024/02/01 02:58:31;;;;;;;41.38;27.23;;;;;;;7.36;100.00;102382.63;5080348;28;20024;-70
2024/02/01 03:00:57;;;;;;;40.78;30.63;;;;;;;7.40;100.00;102388.06;5084353;28;20115;-70
2024/02/01 03:03:22;;;;;;;41.85;30.13;;;;;;;7.40;100.00;102388.06;5080964;28;20082;-70
2024/02/01 03:05:47;;;;;;;41.53;30.17;;;;;;;7.42;100.00;102385.50;5083648;28;20028;-70
2024/02/01 03:08:13;;;;;;;42.25;30.65;;;;;;;7.41;100.00;102383.69;5081335;28;20470;-76
2024/02/01 03:10:40;;;;;;;42.85;28.63;;;;;;;7.52;100.00;102394.69;5081122;28;20134;-75
2024/02/01 03:13:05;;;;;;;40.65;27.05;;;;;;;7.52;100.00;102392.94;5083395;28;20065;-78
2024/02/01 03:15:32;;;;;;;41.22;28.83;;;;;;;7.59;100.00;102394.97;5081395;28;20116;-73
2024/02/01 03:17:57;;;;;;;42.90;27.63;;;;;;;7.63;100.00;102396.00;5084281;28;20035;-70
2024/02/01 03:20:23;;;;;;;39.53;23.85;;;;;;;7.70;100.00;102397.16;5080920;28;20112;-70
2024/02/01 03:22:54;;;;;;;41.55;25.40;;;;;;;7.74;100.00;102397.34;5083447;28;20028;-70
2024/02/01 03:25:31;;;;;;;39.73;24.30;;;;;;;7.81;100.00;102396.75;5080942;28;20049;-71
2024/02/01 03:28:01;;;;;;;38.72;23.30;;;;;;;7.90;100.00;102404.13;5075828;28;20032;-71
2024/02/01 03:30:36;;;;;;;39.97;22.55;;;;;;;7.89;100.00;102401.44;5077352;28;20036;-71
2024/02/01 03:33:05;;;;;;;41.75;23.63;;;;;;;7.90;100.00;102401.50;5078537;28;20031;-77
2024/02/01 03:35:31;;;;;;;40.97;24.25;;;;;;;7.94;100.00;102413.06;5082860;28;20078;-77
2024/02/01 03:38:01;;;;;;;39.75;21.17;;;;;;;7.95;100.00;102413.13;5081164;28;20476;-74
2024/02/01 03:40:27;;;;;;;38.63;19.67;;;;;;;7.99;100.00;102414.13;5077266;28;20051;-74
2024/02/01 03:42:53;;;;;;;37.20;18.80;;;;;;;8.01;100.00;102412.47;5084117;28;20449;-76
2024/02/01 03:45:18;;;;;;;39.05;20.52;;;;;;;7.96;100.00;102419.28;5081499;28;20028;-77
2024/02/01 03:47:46;;;;;;;42.60;20.60;;;;;;;7.93;100.00;102411.25;5083082;28;20040;-76
2024/02/01 03:50:12;;;;;;;41.25;20.98;;;;;;;7.93;100.00;102406.00;5082380;28;20474;-77
2024/02/01 03:52:39;;;;;;;42.35;19.80;;;;;;;7.93;100.00;102417.41;5082001;28;20505;-73
2024/02/01 03:55:16;;;;;;;40.65;20.85;;;;;;;7.93;100.00;102421.78;5083942;28;20028;-70
2024/02/01 03:57:42;;;;;;;39.78;19.58;;;;;;;7.92;100.00;102430.50;5082702;28;20102;-73
2024/02/01 04:00:24;;;;;;;41.05;20.08;;;;;;;7.88;100.00;102439.13;5082959;28;20032;-70
2024/02/01 04:02:51;;;;;;;40.00;19.15;;;;;;;7.95;100.00;102446.44;5083766;28;20040;-76
2024/02/01 04:05:16;;;;;;;41.28;19.85;;;;;;;7.91;100.00;102444.53;5080905;28;20024;-70
2024/02/01 04:07:42;;;;;;;36.85;17.88;;;;;;;7.94;100.00;102448.19;5082649;28;20486;-70
2024/02/01 04:10:07;;;;;;;36.63;17.77;;;;;;;7.88;100.00;102457.56;5083411;28;20024;-74
2024/02/01 04:12:32;;;;;;;36.90;17.55;;;;;;;7.86;100.00;102465.38;5081699;28;20459;-76
2024/02/01 04:15:02;;;;;;;38.05;17.02;;;;;;;7.82;100.00;102467.00;5082569;28;20032;-75
2024/02/01 04:17:27;;;;;;;37.70;16.60;;;;;;;7.79;100.00;102476.50;5076684;28;20036;-77
2024/02/01 04:19:53;;;;;;;38.53;16.23;;;;;;;7.76;100.00;102490.47;5087265;28;20028;-77
2024/02/01 04:22:21;;;;;;;33.45;14.68;;;;;;;7.78;100.00;102499.31;5084470;28;20028;-74
2024/02/01 04:24:46;;;;;;;33.67;14.18;;;;;;;7.70;100.00;102510.34;5085892;28;20079;-76
2024/02/01 04:27:12;;;;;;;31.67;13.15;;;;;;;7.70;100.00;102516.50;5085431;28;20052;-77
2024/02/01 04:29:38;;;;;;;31.90;13.27;;;;;;;7.66;100.00;102518.13;5084996;28;20040;-77
2024/02/01 04:32:04;;;;;;;34.33;12.57;;;;;;;7.63;100.00;102525.88;5086376;28;20024;-77
2024/02/01 04:34:30;;;;;;;32.22;12.82;;;;;;;7.56;100.00;102533.44;5084121;28;20032;-76
2024/02/01 04:36:56;;;;;;;33.10;12.70;;;;;;;7.55;100.00;102543.06;5086903;28;20039;-75
2024/02/01 04:39:21;;;;;;;29.25;10.38;;;;;;;7.55;100.00;102540.44;5083859;28;20033;-70
2024/02/01 04:41:53;;;;;;;30.58;10.07;;;;;;;7.40;100.00;102559.09;5085924;28;20025;-71
2024/02/01 04:44:19;;;;;;;27.02;7.35;;;;;;;7.22;100.00;102574.03;5084055;28;20436;-70
2024/02/01 04:46:44;;;;;;;25.60;6.57;;;;;;;7.02;100.00;102578.38;5085446;28;20029;-70
2024/02/01 04:49:11;;;;;;;26.40;5.05;;;;;;;6.84;100.00;102586.31;5084208;28;20028;-70
2024/02/01 04:51:39;;;;;;;22.30;4.82;;;;;;;6.65;100.00;102592.41;5084363;28;20035;-71
2024/02/01 04:54:04;;;;;;;23.13;4.40;;;;;;;6.53;100.00;102592.72;5085889;28;20123;-70
2024/02/01 04:56:30;;;;;;;27.15;4.50;;;;;;;6.41;100.00;102593.91;5083274;28;20158;-75
2024/02/01 04:58:56;;;;;;;28.02;5.15;;;;;;;6.27;100.00;102593.22;5086652;28;20032;-77
2024/02/01 05:01:22;;;;;;;26.20;4.35;;;;;;;6.19;100.00;102596.28;5083724;28;20437;-70
2024/02/01 05:03:49;;;;;;;25.88;4.60;;;;;;;5.98;100.00;102601.38;5085661;28;20116;-70
2024/02/01 05:06:19;;;;;;;24.58;4.90;;;;;;;5.85;100.00;102605.03;5084303;28;20024;-73
2024/02/01 05:08:45;;;;;;;25.77;4.32;;;;;;;5.71;100.00;102606.97;5084967;28;20035;-73
2024/02/01 05:11:11;;;;;;;28.15;5.75;;;;;;;5.53;100.00;102607.81;5084934;28;20020;-73
2024/02/01 05:13:37;;;;;;;27.17;5.05;;;;;;;5.40;100.00;102613.19;5083976;28;20396;-75
2024/02/01 05:16:02;;;;;;;27.00;5.20;;;;;;;5.30;100.00;102627.53;5085999;28;20035;-73
2024/02/01 05:18:28;;;;;;;28.63;7.78;;;;;;;5.12;100.00;102634.41;5087389;28;20035;-75
2024/02/01 05:20:54;;;;;;;28.27;5.32;;;;;;;4.99;100.00;102628.47;5083468;28;20171;-73
2024/02/01 05:23:19;;;;;;;28.60;6.30;;;;;;;4.90;100.00;102633.19;5085953;28;20483;-74
2024/02/01 05:25:45;;;;;;;26.10;4.70;;;;;;;4.81;100.00;102628.34;5084078;28;20487;-71
2024/02/01 05:28:10;;;;;;;27.48;6.82;;;;;;;4.69;100.00;102625.03;5084375;28;20467;-70
2024/02/01 05:30:36;;;;;;;28.73;6.60;;;;;;;4.59;100.00;102633.16;5085473;28;20077;-70
2024/02/01 05:33:01;;;;;;;30.52;11.30;;;;;;;4.55;100.00;102639.97;5083064;28;20035;-70
2024/02/01 05:35:33;;;;;;;27.00;6.90;;;;;;;4.51;100.00;102632.72;5087051;28;20028;-71
2024/02/01 05:38:00;;;;;;;29.10;8.77;;;;;;;4.40;100.00;102632.13;5079581;28;20081;-70
2024/02/01 05:40:27;;;;;;;27.60;5.65;;;;;;;4.38;100.00;102631.13;5079274;28;20443;-70
2024/02/01 05:42:52;;;;;;;30.70;8.70;;;;;;;4.31;100.00;102628.94;5083016;28;20025;-77
2024/02/01 05:45:19;;;;;;;26.27;5.65;;;;;;;4.27;100.00;102642.69;5085070;28;20035;-77
2024/02/01 05:47:44;;;;;;;28.60;4.95;;;;;;;4.33;100.00;102643.94;5084296;28;20071;-77
2024/02/01 05:50:17;;;;;;;27.98;5.03;;;;;;;4.28;100.00;102655.88;5083874;28;20052;-70
2024/02/01 05:52:43;;;;;;;28.00;5.30;;;;;;;4.22;100.00;102662.47;5084014;28;20471;-70
2024/02/01 05:55:10;;;;;;;26.20;4.93;;;;;;;4.17;100.00;102670.03;5082193;28;20031;-70
2024/02/01 05:57:36;;;;;;;27.95;4.53;;;;;;;4.10;100.00;102675.72;5083133;28;20031;-73
2024/02/01 06:00:06;;;;;;;27.27;4.88;;;;;;;4.07;100.00;102683.41;5082402;28;20052;-75
2024/02/01 06:02:32;;;;;;;30.08;4.95;;;;;;;3.99;100.00;102691.69;5085421;28;20016;-72
2024/02/01 06:04:57;;;;;;;28.27;5.15;;;;;;;3.97;100.00;102698.53;5081821;28;20032;-71
2024/02/01 06:07:23;;;;;;;24.88;4.47;;;;;;;3.88;100.00;102697.06;5085282;28;20024;-70
2024/02/01 06:09:48;;;;;;;26.70;4.63;;;;;;;3.77;100.00;102701.63;5082732;28;20165;-69
2024/02/01 06:12:14;;;;;;;27.23;4.90;;;;;;;3.75;100.00;102705.88;5082219;28;20051;-69
2024/02/01 06:14:39;;;;;;;28.23;5.18;;;;;;;3.64;100.00;102706.13;5084158;28;20470;-69
2024/02/01 06:17:04;;;;;;;29.15;5.20;;;;;;;3.62;100.00;102714.66;5082114;28;20032;-71
2024/02/01 06:19:30;;;;;;;26.95;4.95;;;;;;;3.57;100.00;102723.94;5084979;28;20024;-69
2024/02/01 06:21:55;;;;;;;25.90;4.72;;;;;;;3.58;100.00;102723.13;5081642;28;20060;-69
2024/02/01 06:24:21;;;;;;;27.73;5.03;;;;;;;3.51;100.00;102726.16;5082851;28;20044;-70
2024/02/01 06:26:46;;;;;;;30.40;5.22;;;;;;;3.39;100.00;102729.81;5082469;28;20532;-70
2024/02/01 06:29:12;;;;;;;27.48;4.90;;;;;;;3.33;100.00;102731.13;5083071;28;20035;-71
2024/02/01 06:31:38;;;;;;;28.23;5.28;;;;;;;3.23;100.00;102725.34;5083786;28;20024;-71
2024/02/01 06:34:05;;;;;;;28.85;5.60;;;;;;;3.21;100.00;102742.59;5081830;28;20102;-70
2024/02/01 06:36:35;;;;;;;27.30;4.90;;;;;;;3.16;100.00;102745.72;5084808;28;20036;-69
2024/02/01 06:44:21;;;;;;;29.17;5.28;;;;;;;2.94;100.00;102757.38;5081662;28;20044;-69
2024/02/01 06:47:06;;;;;;;31.17;5.47;;;;;;;2.84;100.00;102749.75;5082724;28;20051;-70
2024/02/01 06:54:50;;;;;;;28.45;4.95;;;;;;;2.75;100.00;102769.25;5079929;28;20029;-75
2024/02/01 06:57:18;;;;;;;28.98;5.03;;;;;;;2.70;100.00;102767.13;5082354;28;20035;-76
2024/02/01 07:00:06;;;;;;;24.45;5.32;;;;;;;2.53;100.00;102772.09;5082654;28;20058;-73
2024/02/01 07:02:35;;;;;;;28.75;5.10;;;;;;;2.46;100.00;102772.47;5077263;28;20396;-74
2024/02/01 07:05:21;;;;;;;27.02;5.60;;;;;;;2.43;100.00;102770.59;5077771;28;20513;-73
2024/02/01 07:07:49;;;;;;;29.70;6.00;;;;;;;2.41;100.00;102785.22;5082191;28;20023;-70
2024/02/01 07:10:17;;;;;;;31.52;5.75;;;;;;;2.37;100.00;102785.78;5082908;28;20040;-74
2024/02/01 07:12:53;;;;;;;29.70;6.32;;;;;;;2.39;100.00;102791.16;5082393;28;20027;-75
2024/02/01 07:17:58;;;;;;;29.93;6.00;;;;;;;2.33;100.00;102798.53;5082039;28;20140;-75
2024/02/01 07:20:35;;;;;;;29.17;5.70;;;;;;;2.31;100.00;102795.81;5084102;28;20028;-73
2024/02/01 07:25:52;;;;;;;32.70;6.20;;;;;;;2.26;100.00;102820.72;5081782;28;20434;-72
2024/02/01 07:58:24;;;;;;;30.05;5.97;;;;;;;2.57;100.00;102865.50;5083762;28;20090;-73
2024/02/01 08:00:57;;;;;;;32.90;6.57;;;;;;;2.55;100.00;102871.41;5087581;28;20040;-71
2024/02/01 08:08:38;;;;;;;29.20;5.60;;;;;;;2.57;100.00;102873.34;5082767;28;20094;-71
2024/02/01 08:11:04;;;;;;;30.85;5.80;;;;;;;2.61;100.00;102875.38;5087720;28;20024;-70
2024/02/01 08:13:30;;;;;;;28.73;6.53;;;;;;;2.66;100.00;102883.53;5083979;28;20464;-70
2024/02/01 08:15:57;;;;;;;32.58;6.95;;;;;;;2.73;100.00;102883.16;5087495;28;20364;-70
2024/02/01 08:18:25;;;;;;;26.58;6.32;;;;;;;2.82;100.00;102889.81;5084758;28;20498;-70
2024/02/01 08:20:52;;;;;;;32.25;6.63;;;;;;;2.94;100.00;102898.47;5086516;28;20028;-70
2024/02/01 08:23:20;;;;;;;29.25;6.60;;;;;;;3.18;100.00;102909.69;5085333;28;20032;-71
2024/02/01 08:25:47;;;;;;;30.25;6.60;;;;;;;3.39;100.00;102923.28;5085850;28;20041;-71
2024/02/01 08:28:14;;;;;;;32.03;6.32;;;;;;;3.50;100.00;102918.78;5085855;28;20020;-71
2024/02/01 08:30:40;;;;;;;30.92;6.13;;;;;;;3.69;100.00;102918.28;5083642;28;20032;-70
2024/02/01 08:33:15;;;;;;;31.33;6.53;;;;;;;3.83;100.00;102919.22;5085395;28;20512;-70
2024/02/01 08:35:41;;;;;;;30.48;6.35;;;;;;;4.01;100.00;102915.13;5085034;28;20025;-70
2024/02/01 08:38:07;;;;;;;30.48;6.00;;;;;;;4.13;100.00;102920.25;5086086;28;20032;-70
2024/02/01 08:40:33;;;;;;;28.05;6.15;;;;;;;4.28;100.00;102919.41;5083668;28;20032;-75
2024/02/01 08:42:59;;;;;;;27.67;5.88;;;;;;;4.42;100.00;102934.28;5087878;28;20032;-78
2024/02/01 08:45:27;;;;;;;28.67;5.65;;;;;;;4.56;100.00;102927.31;5084194;28;20024;-78
2024/02/01 08:48:00;;;;;;;29.77;5.88;;;;;;;4.69;100.00;102928.97;5085516;28;20569;-77
2024/02/01 08:50:30;;;;;;;27.02;5.55;;;;;;;4.89;100.00;102935.41;5084261;28;20024;-77
2024/02/01 08:52:55;;;;;;;27.08;5.97;;;;;;;5.03;100.00;102931.03;5087240;28;20032;-78
2024/02/01 08:55:21;;;;;;;28.30;5.35;;;;;;;5.19;100.00;102932.84;5084602;28;20031;-77
2024/02/01 08:57:47;;;;;;;25.27;5.45;;;;;;;5.35;100.00;102935.56;5085833;28;20438;-77
2024/02/01 09:00:32;;;;;;;26.13;5.50;;;;;;;5.51;100.00;102950.47;5085389;28;20068;-78
2024/02/01 09:03:05;;;;;;;31.15;6.28;;;;;;;5.64;100.00;102953.84;5079278;28;20020;-72
2024/02/01 09:05:36;;;;;;;27.45;5.70;;;;;;;5.89;100.00;102954.41;5079165;28;20052;-71
2024/02/01 09:08:08;;;;;;;28.10;5.70;;;;;;;5.99;100.00;102958.50;5079920;28;20391;-71
2024/02/01 09:10:34;;;;;;;26.73;5.65;;;;;;;6.10;100.00;102964.34;5080130;28;20033;-71
2024/02/01 09:13:00;;;;;;;27.25;5.30;;;;;;;6.30;100.00;102968.09;5086286;28;20479;-70
2024/02/01 09:15:26;;;;;;;25.25;5.15;;;;;;;6.57;100.00;102975.72;5083019;28;20063;-70
2024/02/01 09:17:51;;;;;;;24.33;4.78;;;;;;;6.73;100.00;102962.59;5085647;28;20028;-70
2024/02/01 09:20:18;;;;;;;27.27;5.15;;;;;;;6.94;100.00;102959.28;5084096;28;20068;-73
2024/02/01 09:22:51;;;;;;;25.35;4.95;;;;;;;7.12;100.00;102964.59;5084442;28;20067;-72
2024/02/01 09:25:21;;;;;;;25.77;4.88;;;;;;;7.36;100.00;102961.47;5084104;28;20043;-71
2024/02/01 09:27:51;;;;;;;26.08;5.22;;;;;;;7.39;100.00;102957.25;5084525;28;20039;-70
2024/02/01 09:30:25;;;;;;;23.67;4.72;;;;;;;7.59;100.00;102958.25;5077774;28;20131;-70
2024/02/01 09:32:51;;;;;;;26.55;5.07;;;;;;;7.86;100.00;102957.81;5084297;28;20086;-71
2024/02/01 09:35:18;;;;;;;24.95;4.90;;;;;;;7.72;100.00;102962.41;5083594;28;20475;-71
2024/02/01 09:37:43;;;;;;;25.23;5.25;;;;;;;7.78;100.00;102951.28;5085573;28;20047;-70
2024/02/01 09:40:12;;;;;;;23.55;4.50;;;;;;;8.01;100.00;102958.56;5082263;28;20459;-71
2024/02/01 09:42:41;;;;;;;25.35;5.47;;;;;;;8.02;100.00;102960.38;5078574;28;20054;-70
2024/02/01 09:45:07;;;;;;;23.08;4.70;;;;;;;8.36;100.00;102969.00;5078587;28;20060;-70
2024/02/01 09:47:43;;;;;;;24.08;4.72;;;;;;;8.50;100.00;102967.94;5085204;28;20077;-70
2024/02/01 09:50:12;;;;;;;23.52;4.70;;;;;;;8.75;100.00;102973.44;5078515;28;20027;-70
2024/02/01 09:52:39;;;;;;;23.52;4.68;;;;;;;8.77;100.00;102974.44;5070222;28;20040;-70
2024/02/01 09:55:08;;;;;;;23.67;4.70;;;;;;;8.84;100.00;102976.47;5085117;28;20032;-70
2024/02/01 09:57:40;;;;;;;24.42;4.70;;;;;;;8.97;100.00;102984.16;5081585;28;20471;-71
2024/02/01 10:00:12;;;;;;;23.33;4.68;;;;;;;9.16;100.00;102990.22;5085081;28;20028;-73
2024/02/01 10:02:39;;;;;;;26.00;4.60;;;;;;;9.50;100.00;102999.63;5077815;28;20074;-78
2024/02/01 10:05:05;;;;;;;23.75;5.22;;;;;;;9.28;100.00;102998.69;5084665;28;20034;-78
2024/02/01 10:07:31;;;;;;;25.00;4.72;;;;;;;9.31;100.00;102995.28;5083436;28;20031;-80
2024/02/01 10:09:56;;;;;;;24.10;4.70;;;;;;;9.32;100.00;102999.72;5086613;28;20028;-78
2024/02/01 10:12:25;;;;;;;23.85;5.05;;;;;;;9.53;100.00;103008.56;5083672;28;20032;-78
2024/02/01 10:14:51;;;;;;;23.98;4.63;;;;;;;9.97;100.00;102998.06;5083863;28;20028;-79
2024/02/01 10:17:17;;;;;;;24.65;5.00;;;;;;;10.56;100.00;103003.97;5080603;28;20027;-78
2024/02/01 10:19:49;;;;;;;22.77;4.97;;;;;;;10.85;100.00;103008.56;5077793;28;20040;-78
2024/02/01 10:22:15;;;;;;;22.73;4.53;;;;;;;10.99;100.00;103010.00;5084580;28;20041;-78
2024/02/01 10:24:45;;;;;;;22.92;4.80;;;;;;;11.37;100.00;103021.06;5083754;28;20037;-78
2024/02/01 10:27:14;;;;;;;23.98;4.75;;;;;;;11.72;100.00;103032.00;5083700;28;20103;-78
2024/02/01 10:29:40;;;;;;;21.70;4.35;;;;;;;11.98;100.00;103032.91;5081869;28;20021;-78
2024/02/01 10:32:14;;;;;;;22.33;4.47;;;;;;;12.26;100.00;103014.34;5084458;28;20052;-78
2024/02/01 10:34:49;;;;;;;24.20;4.45;;;;;;;12.13;100.00;102999.78;5082910;28;20028;-78
2024/02/01 10:37:19;;;;;;;22.90;4.50;;;;;;;12.09;100.00;103014.72;5082236;28;20055;-78
2024/02/01 10:40:01;;;;;;;22.33;4.68;;;;;;;12.36;100.00;103019.09;5083569;28;20029;-71
2024/02/01 10:42:30;;;;;;;23.48;4.57;;;;;;;12.75;100.00;103022.94;5077480;28;20479;-73
2024/02/01 10:45:01;;;;;;;21.88;4.38;;;;;;;13.04;100.00;103016.72;5077490;28;20028;-75
2024/02/01 10:47:32;;;;;;;23.60;4.72;;;;;;;13.19;100.00;103021.59;5077368;28;20021;-73
2024/02/01 10:49:58;;;;;;;21.98;4.43;;;;;;;12.68;100.00;103014.81;5077504;28;20017;-77
2024/02/01 10:52:23;;;;;;;24.05;4.80;;;;;;;12.41;100.00;103021.88;5083442;28;20028;-74
2024/02/01 10:54:52;;;;;;;25.42;5.10;;;;;;;12.34;100.00;103028.78;5081649;28;20084;-74
2024/02/01 10:57:18;;;;;;;22.77;4.78;;;;;;;12.14;100.00;103014.88;5083475;28;20082;-76
2024/02/01 10:59:46;;;;;;;25.05;5.20;;;;;;;12.20;100.00;103018.63;5082504;28;20356;-70
2024/02/01 11:02:12;;;;;;;24.63;4.70;;;;;;;12.19;100.00;103011.50;5082706;28;20028;-79
2024/02/01 11:04:38;;;;;;;25.88;4.93;;;;;;;12.68;100.00;103001.53;5083083;28;20032;-78
2024/02/01 11:07:05;;;;;;;24.38;4.78;;;;;;;13.31;100.00;103005.06;5081887;28;20038;-75
2024/02/01 11:09:30;;;;;;;24.02;4.30;;;;;;;13.73;100.00;103003.53;5084166;28;20024;-78
2024/02/01 11:11:56;;;;;;;22.52;4.18;;;;;;;13.60;100.00;103012.94;5080793;28;20020;-73
2024/02/01 11:14:28;;;;;;;21.77;4.45;;;;;;;13.45;100.00;103013.44;5084217;28;20024;-74
2024/02/01 11:17:02;;;;;;;23.57;4.60;;;;;;;13.03;100.00;103019.31;5081476;28;20036;-72
2024/02/01 11:19:33;;;;;;;22.65;4.35;;;;;;;13.64;100.00;103005.97;5077231;28;20029;-70
2024/02/01 11:22:01;;;;;;;23.73;4.70;;;;;;;13.47;100.00;103018.78;5077260;28;20113;-71
2024/02/01 11:24:29;;;;;;;23.30;4.40;;;;;;;13.66;100.00;103017.50;5077002;28;20542;-72
2024/02/01 11:26:57;;;;;;;24.02;4.45;;;;;;;14.57;100.00;103007.28;5077751;28;20383;-72
2024/02/01 11:29:34;;;;;;;23.40;5.00;;;;;;;14.92;100.00;103012.50;5088078;28;20031;-73
2024/02/01 11:32:03;;;;;;;22.52;4.45;;;;;;;13.82;100.00;103014.41;5081474;28;20040;-72
2024/02/01 11:34:31;;;;;;;23.50;4.40;;;;;;;13.28;100.00;103023.59;5088468;28;20107;-71
2024/02/01 11:36:57;;;;;;;23.50;4.47;;;;;;;13.85;100.00;103022.47;5081071;28;20044;-72
2024/02/01 11:39:23;;;;;;;23.73;4.45;;;;;;;13.52;100.00;103026.03;5087911;28;20020;-75
2024/02/01 11:41:50;;;;;;;21.20;4.22;;;;;;;12.82;100.00;103019.63;5085417;28;20090;-74
2024/02/01 11:44:18;;;;;;;23.42;4.40;;;;;;;12.67;100.00;103028.03;5086882;28;20445;-70
2024/02/01 11:46:47;;;;;;;22.58;4.35;;;;;;;13.06;100.00;103014.09;5085902;28;20085;-70
2024/02/01 11:49:18;;;;;;;22.77;4.57;;;;;;;13.60;100.00;103019.16;5086407;28;20070;-70
2024/02/01 11:52:16;;;;;;;22.15;4.30;;;;;;;13.87;100.00;103019.84;5086348;28;20421;-69
2024/02/01 11:54:46;;;;;;;21.08;3.92;;;;;;;13.61;100.00;103020.06;5039966;28;20133;-72
2024/02/01 11:57:14;;;;;;;22.35;4.32;;;;;;;15.35;100.00;103012.47;5086025;28;20028;-69
2024/02/01 11:59:39;;;;;;;22.67;4.05;;;;;;;15.77;100.00;103018.53;5085598;28;20033;-69
2024/02/01 12:02:05;;;;;;;22.60;4.38;;;;;;;15.76;100.00;103025.66;5087084;28;20201;-69
2024/02/01 12:04:30;;;;;;;21.80;3.92;;;;;;;16.22;100.00;103012.19;5084179;28;20029;-70